sensor_id;sensor_type;location;lat;lon;timestamp;temperature;humidity
14901;DHT22;7542;49.078;9.194;2022-08-21T00:00:17;19.20;62.30
14901;DHT22;7542;49.078;9.194;2022-08-21T00:02:52;18.90;62.20
14901;DHT22;7542;49.078;9.194;2022-08-21T00:05:24;19.20;62.20
14901;DHT22;7542;49.078;9.194;2022-08-21T00:07:52;19.20;62.00
14901;DHT22;7542;49.078;9.194;2022-08-21T00:10:20;19.30;62.00
14901;DHT22;7542;49.078;9.194;2022-08-21T00:12:47;18.90;61.70
14901;DHT22;7542;49.078;9.194;2022-08-21T00:15:18;19.30;61.60
14901;DHT22;7542;49.078;9.194;2022-08-21T00:17:53;19.30;61.70
14901;DHT22;7542;49.078;9.194;2022-08-21T00:20:22;19.20;61.70
14901;DHT22;7542;49.078;9.194;2022-08-21T00:22:50;19.30;61.80
14901;DHT22;7542;49.078;9.194;2022-08-21T00:25:20;19.10;62.10
14901;DHT22;7542;49.078;9.194;2022-08-21T00:27:52;19.00;62.30
14901;DHT22;7542;49.078;9.194;2022-08-21T00:30:21;19.00;62.70
14901;DHT22;7542;49.078;9.194;2022-08-21T00:32:51;18.90;63.00
14901;DHT22;7542;49.078;9.194;2022-08-21T00:35:22;18.80;62.70
14901;DHT22;7542;49.078;9.194;2022-08-21T00:37:51;18.80;62.70
14901;DHT22;7542;49.078;9.194;2022-08-21T00:40:25;18.90;62.70
14901;DHT22;7542;49.078;9.194;2022-08-21T00:42:57;18.90;62.40
14901;DHT22;7542;49.078;9.194;2022-08-21T00:45:25;18.90;62.60
14901;DHT22;7542;49.078;9.194;2022-08-21T00:47:54;18.90;62.70
14901;DHT22;7542;49.078;9.194;2022-08-21T00:50:22;18.90;63.00
14901;DHT22;7542;49.078;9.194;2022-08-21T00:52:52;18.80;63.10
14901;DHT22;7542;49.078;9.194;2022-08-21T00:55:20;18.80;63.50
14901;DHT22;7542;49.078;9.194;2022-08-21T00:57:52;18.70;63.50
14901;DHT22;7542;49.078;9.194;2022-08-21T01:00:26;18.70;63.50
14901;DHT22;7542;49.078;9.194;2022-08-21T01:03:01;18.70;63.80
14901;DHT22;7542;49.078;9.194;2022-08-21T01:05:35;19.10;64.20
14901;DHT22;7542;49.078;9.194;2022-08-21T01:08:03;18.60;63.90
14901;DHT22;7542;49.078;9.194;2022-08-21T01:10:30;19.00;64.20
14901;DHT22;7542;49.078;9.194;2022-08-21T01:12:59;18.60;63.90
14901;DHT22;7542;49.078;9.194;2022-08-21T01:15:31;18.70;64.20
14901;DHT22;7542;49.078;9.194;2022-08-21T01:18:03;18.40;64.10
14901;DHT22;7542;49.078;9.194;2022-08-21T01:20:34;18.30;64.70
14901;DHT22;7542;49.078;9.194;2022-08-21T01:23:04;18.30;64.90
14901;DHT22;7542;49.078;9.194;2022-08-21T01:25:32;18.40;65.20
14901;DHT22;7542;49.078;9.194;2022-08-21T01:28:09;18.20;65.20
14901;DHT22;7542;49.078;9.194;2022-08-21T01:30:42;18.10;65.60
14901;DHT22;7542;49.078;9.194;2022-08-21T01:33:10;18.10;65.60
14901;DHT22;7542;49.078;9.194;2022-08-21T01:35:37;18.90;66.20
14901;DHT22;7542;49.078;9.194;2022-08-21T01:38:05;18.10;65.60
14901;DHT22;7542;49.078;9.194;2022-08-21T01:40:32;18.10;65.60
14901;DHT22;7542;49.078;9.194;2022-08-21T01:42:59;18.10;66.10
14901;DHT22;7542;49.078;9.194;2022-08-21T01:45:26;18.10;66.20
14901;DHT22;7542;49.078;9.194;2022-08-21T01:47:53;18.00;66.10
14901;DHT22;7542;49.078;9.194;2022-08-21T01:50:21;18.00;66.10
14901;DHT22;7542;49.078;9.194;2022-08-21T01:52:49;18.00;66.10
14901;DHT22;7542;49.078;9.194;2022-08-21T01:55:17;17.90;66.10
14901;DHT22;7542;49.078;9.194;2022-08-21T01:57:46;17.90;66.40
14901;DHT22;7542;49.078;9.194;2022-08-21T02:00:16;17.70;66.60
14901;DHT22;7542;49.078;9.194;2022-08-21T02:02:45;18.20;67.30
14901;DHT22;7542;49.078;9.194;2022-08-21T02:05:13;17.60;67.20
14901;DHT22;7542;49.078;9.194;2022-08-21T02:07:45;18.00;67.90
14901;DHT22;7542;49.078;9.194;2022-08-21T02:10:24;17.60;67.90
14901;DHT22;7542;49.078;9.194;2022-08-21T02:12:55;17.50;68.10
14901;DHT22;7542;49.078;9.194;2022-08-21T02:15:23;17.50;68.10
14901;DHT22;7542;49.078;9.194;2022-08-21T02:17:58;17.50;68.00
14901;DHT22;7542;49.078;9.194;2022-08-21T02:20:36;17.50;68.20
14901;DHT22;7542;49.078;9.194;2022-08-21T02:23:09;17.50;68.40
14901;DHT22;7542;49.078;9.194;2022-08-21T02:25:38;17.50;68.70
14901;DHT22;7542;49.078;9.194;2022-08-21T02:28:10;17.50;68.80
14901;DHT22;7542;49.078;9.194;2022-08-21T02:30:42;17.50;68.80
14901;DHT22;7542;49.078;9.194;2022-08-21T02:33:11;17.60;68.70
14901;DHT22;7542;49.078;9.194;2022-08-21T02:35:40;17.60;68.80
14901;DHT22;7542;49.078;9.194;2022-08-21T02:38:11;17.60;68.70
14901;DHT22;7542;49.078;9.194;2022-08-21T02:40:43;17.60;68.80
14901;DHT22;7542;49.078;9.194;2022-08-21T02:43:14;17.60;69.00
14901;DHT22;7542;49.078;9.194;2022-08-21T02:45:44;17.50;69.00
14901;DHT22;7542;49.078;9.194;2022-08-21T02:48:15;17.40;69.00
14901;DHT22;7542;49.078;9.194;2022-08-21T02:50:47;17.40;69.20
14901;DHT22;7542;49.078;9.194;2022-08-21T02:53:18;17.30;69.60
14901;DHT22;7542;49.078;9.194;2022-08-21T02:55:48;17.30;70.10
14901;DHT22;7542;49.078;9.194;2022-08-21T02:58:19;17.10;70.60
14901;DHT22;7542;49.078;9.194;2022-08-21T03:00:51;17.10;70.90
14901;DHT22;7542;49.078;9.194;2022-08-21T03:03:18;17.10;70.90
14901;DHT22;7542;49.078;9.194;2022-08-21T03:05:48;17.10;71.10
14901;DHT22;7542;49.078;9.194;2022-08-21T03:08:16;17.10;71.20
14901;DHT22;7542;49.078;9.194;2022-08-21T03:10:48;17.20;71.10
14901;DHT22;7542;49.078;9.194;2022-08-21T03:13:18;17.10;71.00
14901;DHT22;7542;49.078;9.194;2022-08-21T03:15:48;17.10;71.30
14901;DHT22;7542;49.078;9.194;2022-08-21T03:18:16;16.80;71.30
14901;DHT22;7542;49.078;9.194;2022-08-21T03:20:44;17.10;71.60
14901;DHT22;7542;49.078;9.194;2022-08-21T03:23:14;17.00;71.70
14901;DHT22;7542;49.078;9.194;2022-08-21T03:25:44;17.00;71.70
14901;DHT22;7542;49.078;9.194;2022-08-21T03:28:15;17.30;71.90
14901;DHT22;7542;49.078;9.194;2022-08-21T03:30:46;16.90;72.00
14901;DHT22;7542;49.078;9.194;2022-08-21T03:33:14;17.00;71.90
14901;DHT22;7542;49.078;9.194;2022-08-21T03:35:43;17.00;72.00
14901;DHT22;7542;49.078;9.194;2022-08-21T03:38:12;16.90;72.50
14901;DHT22;7542;49.078;9.194;2022-08-21T03:40:42;16.70;72.70
14901;DHT22;7542;49.078;9.194;2022-08-21T03:43:10;16.70;72.90
14901;DHT22;7542;49.078;9.194;2022-08-21T03:45:38;16.80;73.10
14901;DHT22;7542;49.078;9.194;2022-08-21T03:48:06;16.70;73.20
14901;DHT22;7542;49.078;9.194;2022-08-21T03:50:37;16.80;73.30
14901;DHT22;7542;49.078;9.194;2022-08-21T03:53:08;16.80;73.70
14901;DHT22;7542;49.078;9.194;2022-08-21T03:55:45;16.70;74.20
14901;DHT22;7542;49.078;9.194;2022-08-21T03:58:15;16.70;74.20
14901;DHT22;7542;49.078;9.194;2022-08-21T04:00:46;16.80;74.40
14901;DHT22;7542;49.078;9.194;2022-08-21T04:03:15;16.70;74.60
14901;DHT22;7542;49.078;9.194;2022-08-21T04:05:43;16.70;75.00
14901;DHT22;7542;49.078;9.194;2022-08-21T04:08:12;16.70;75.40
14901;DHT22;7542;49.078;9.194;2022-08-21T04:10:42;17.20;76.60
14901;DHT22;7542;49.078;9.194;2022-08-21T04:13:10;17.40;77.20
14901;DHT22;7542;49.078;9.194;2022-08-21T04:15:37;16.90;77.40
14901;DHT22;7542;49.078;9.194;2022-08-21T04:18:04;16.70;78.20
14901;DHT22;7542;49.078;9.194;2022-08-21T04:20:32;16.60;78.50
14901;DHT22;7542;49.078;9.194;2022-08-21T04:22:59;16.60;78.90
14901;DHT22;7542;49.078;9.194;2022-08-21T04:25:27;16.70;79.30
14901;DHT22;7542;49.078;9.194;2022-08-21T04:27:54;16.70;79.70
14901;DHT22;7542;49.078;9.194;2022-08-21T04:30:21;16.70;79.90
14901;DHT22;7542;49.078;9.194;2022-08-21T04:32:55;16.70;80.20
14901;DHT22;7542;49.078;9.194;2022-08-21T04:35:26;16.60;80.00
14901;DHT22;7542;49.078;9.194;2022-08-21T04:37:54;16.60;80.40
14901;DHT22;7542;49.078;9.194;2022-08-21T04:40:23;16.50;80.50
14901;DHT22;7542;49.078;9.194;2022-08-21T04:43:00;16.50;80.60
14901;DHT22;7542;49.078;9.194;2022-08-21T04:45:35;16.50;80.60
14901;DHT22;7542;49.078;9.194;2022-08-21T04:48:05;16.50;81.30
14901;DHT22;7542;49.078;9.194;2022-08-21T04:53:52;16.40;81.70
14901;DHT22;7542;49.078;9.194;2022-08-21T04:56:29;16.40;81.80
14901;DHT22;7542;49.078;9.194;2022-08-21T04:59:04;16.50;81.70
14901;DHT22;7542;49.078;9.194;2022-08-21T05:01:39;16.50;81.50
14901;DHT22;7542;49.078;9.194;2022-08-21T05:04:11;16.50;81.40
14901;DHT22;7542;49.078;9.194;2022-08-21T05:06:42;17.70;82.20
14901;DHT22;7542;49.078;9.194;2022-08-21T05:09:14;16.60;81.50
14901;DHT22;7542;49.078;9.194;2022-08-21T05:11:43;16.90;81.90
14901;DHT22;7542;49.078;9.194;2022-08-21T05:14:12;16.60;81.80
14901;DHT22;7542;49.078;9.194;2022-08-21T05:16:39;17.70;82.50
14901;DHT22;7542;49.078;9.194;2022-08-21T05:19:08;16.70;82.10
14901;DHT22;7542;49.078;9.194;2022-08-21T05:21:37;16.70;82.10
14901;DHT22;7542;49.078;9.194;2022-08-21T05:24:07;16.90;82.50
14901;DHT22;7542;49.078;9.194;2022-08-21T05:26:34;16.70;82.50
14901;DHT22;7542;49.078;9.194;2022-08-21T05:29:12;16.80;82.50
14901;DHT22;7542;49.078;9.194;2022-08-21T05:31:40;16.80;82.50
14901;DHT22;7542;49.078;9.194;2022-08-21T05:34:07;16.80;82.30
14901;DHT22;7542;49.078;9.194;2022-08-21T05:36:34;16.80;82.20
14901;DHT22;7542;49.078;9.194;2022-08-21T05:39:02;16.90;82.20
14901;DHT22;7542;49.078;9.194;2022-08-21T05:41:29;16.90;82.20
14901;DHT22;7542;49.078;9.194;2022-08-21T05:43:59;16.90;82.50
14901;DHT22;7542;49.078;9.194;2022-08-21T05:46:26;17.00;82.50
14901;DHT22;7542;49.078;9.194;2022-08-21T05:48:53;17.00;82.40
14901;DHT22;7542;49.078;9.194;2022-08-21T05:51:20;17.00;82.60
14901;DHT22;7542;49.078;9.194;2022-08-21T05:53:47;17.10;82.80
14901;DHT22;7542;49.078;9.194;2022-08-21T05:56:14;17.10;82.80
14901;DHT22;7542;49.078;9.194;2022-08-21T05:58:41;17.10;82.80
14901;DHT22;7542;49.078;9.194;2022-08-21T06:01:09;17.30;82.90
14901;DHT22;7542;49.078;9.194;2022-08-21T06:03:38;17.20;82.50
14901;DHT22;7542;49.078;9.194;2022-08-21T06:06:07;17.30;82.20
14901;DHT22;7542;49.078;9.194;2022-08-21T06:08:34;17.20;81.80
14901;DHT22;7542;49.078;9.194;2022-08-21T06:11:02;17.40;81.40
14901;DHT22;7542;49.078;9.194;2022-08-21T06:13:30;17.40;81.20
14901;DHT22;7542;49.078;9.194;2022-08-21T06:16:07;17.40;80.90
14901;DHT22;7542;49.078;9.194;2022-08-21T06:18:43;17.40;80.50
14901;DHT22;7542;49.078;9.194;2022-08-21T06:21:12;17.40;80.50
14901;DHT22;7542;49.078;9.194;2022-08-21T06:23:41;17.60;80.60
14901;DHT22;7542;49.078;9.194;2022-08-21T06:26:10;17.70;80.40
14901;DHT22;7542;49.078;9.194;2022-08-21T06:28:38;17.80;80.00
14901;DHT22;7542;49.078;9.194;2022-08-21T06:31:18;17.80;79.60
14901;DHT22;7542;49.078;9.194;2022-08-21T06:33:48;17.90;80.00
14901;DHT22;7542;49.078;9.194;2022-08-21T06:36:15;18.00;79.80
14901;DHT22;7542;49.078;9.194;2022-08-21T06:38:42;18.00;79.80
14901;DHT22;7542;49.078;9.194;2022-08-21T06:41:16;18.20;79.80
14901;DHT22;7542;49.078;9.194;2022-08-21T06:43:49;18.20;78.90
14901;DHT22;7542;49.078;9.194;2022-08-21T06:46:16;18.30;78.50
14901;DHT22;7542;49.078;9.194;2022-08-21T06:48:43;18.30;78.50
14901;DHT22;7542;49.078;9.194;2022-08-21T06:51:10;18.40;78.60
14901;DHT22;7542;49.078;9.194;2022-08-21T06:53:37;18.50;78.90
14901;DHT22;7542;49.078;9.194;2022-08-21T06:56:04;18.60;78.60
14901;DHT22;7542;49.078;9.194;2022-08-21T06:58:31;18.60;78.20
14901;DHT22;7542;49.078;9.194;2022-08-21T07:00:58;18.70;78.10
14901;DHT22;7542;49.078;9.194;2022-08-21T07:05:57;19.30;77.40
14901;DHT22;7542;49.078;9.194;2022-08-21T07:08:28;19.00;75.90
14901;DHT22;7542;49.078;9.194;2022-08-21T07:10:58;19.10;74.20
14901;DHT22;7542;49.078;9.194;2022-08-21T07:13:27;19.10;72.60
14901;DHT22;7542;49.078;9.194;2022-08-21T07:15:55;19.20;72.50
14901;DHT22;7542;49.078;9.194;2022-08-21T07:18:29;19.30;72.20
14901;DHT22;7542;49.078;9.194;2022-08-21T07:20:56;19.40;71.70
14901;DHT22;7542;49.078;9.194;2022-08-21T07:23:27;19.50;69.00
14901;DHT22;7542;49.078;9.194;2022-08-21T07:25:55;19.70;69.50
14901;DHT22;7542;49.078;9.194;2022-08-21T07:28:22;19.60;69.20
14901;DHT22;7542;49.078;9.194;2022-08-21T07:30:55;19.70;69.10
14901;DHT22;7542;49.078;9.194;2022-08-21T07:33:26;19.80;68.50
14901;DHT22;7542;49.078;9.194;2022-08-21T07:35:55;19.90;68.10
14901;DHT22;7542;49.078;9.194;2022-08-21T07:38:22;20.00;68.80
14901;DHT22;7542;49.078;9.194;2022-08-21T07:40:51;20.20;68.50
14901;DHT22;7542;49.078;9.194;2022-08-21T07:43:21;20.10;67.70
14901;DHT22;7542;49.078;9.194;2022-08-21T07:45:48;20.30;68.20
14901;DHT22;7542;49.078;9.194;2022-08-21T07:48:16;20.30;67.50
14901;DHT22;7542;49.078;9.194;2022-08-21T07:50:43;20.40;67.50
14901;DHT22;7542;49.078;9.194;2022-08-21T07:53:10;20.40;67.50
14901;DHT22;7542;49.078;9.194;2022-08-21T07:55:37;20.50;67.70
14901;DHT22;7542;49.078;9.194;2022-08-21T07:58:04;20.60;67.40
14901;DHT22;7542;49.078;9.194;2022-08-21T08:00:31;20.60;67.00
14901;DHT22;7542;49.078;9.194;2022-08-21T08:02:58;20.70;67.00
14901;DHT22;7542;49.078;9.194;2022-08-21T08:05:29;20.80;65.60
14901;DHT22;7542;49.078;9.194;2022-08-21T08:07:57;20.90;65.90
14901;DHT22;7542;49.078;9.194;2022-08-21T08:10:25;21.00;66.40
14901;DHT22;7542;49.078;9.194;2022-08-21T08:12:52;21.00;66.10
14901;DHT22;7542;49.078;9.194;2022-08-21T08:15:24;21.10;65.90
14901;DHT22;7542;49.078;9.194;2022-08-21T08:17:54;21.10;65.90
14901;DHT22;7542;49.078;9.194;2022-08-21T08:20:23;21.20;65.30
14901;DHT22;7542;49.078;9.194;2022-08-21T08:22:53;21.30;65.60
14901;DHT22;7542;49.078;9.194;2022-08-21T08:25:21;21.30;65.20
14901;DHT22;7542;49.078;9.194;2022-08-21T08:27:50;21.40;65.00
14901;DHT22;7542;49.078;9.194;2022-08-21T08:30:18;21.60;64.90
14901;DHT22;7542;49.078;9.194;2022-08-21T08:32:47;21.70;64.80
14901;DHT22;7542;49.078;9.194;2022-08-21T08:35:14;21.80;64.50
14901;DHT22;7542;49.078;9.194;2022-08-21T08:37:42;21.80;64.70
14901;DHT22;7542;49.078;9.194;2022-08-21T08:43:08;21.90;64.70
14901;DHT22;7542;49.078;9.194;2022-08-21T08:45:42;21.90;64.70
14901;DHT22;7542;49.078;9.194;2022-08-21T08:48:16;22.00;64.40
14901;DHT22;7542;49.078;9.194;2022-08-21T08:52:05;22.10;63.90
14901;DHT22;7542;49.078;9.194;2022-08-21T08:54:32;22.10;64.10
14901;DHT22;7542;49.078;9.194;2022-08-21T08:57:16;22.20;63.40
14901;DHT22;7542;49.078;9.194;2022-08-21T08:59:48;22.20;63.60
14901;DHT22;7542;49.078;9.194;2022-08-21T09:02:19;22.30;63.20
14901;DHT22;7542;49.078;9.194;2022-08-21T09:04:50;22.40;61.70
14901;DHT22;7542;49.078;9.194;2022-08-21T09:16:15;22.80;61.30
14901;DHT22;7542;49.078;9.194;2022-08-21T09:22:43;23.00;60.60
14901;DHT22;7542;49.078;9.194;2022-08-21T09:25:31;23.10;61.00
14901;DHT22;7542;49.078;9.194;2022-08-21T09:28:01;23.10;61.00
14901;DHT22;7542;49.078;9.194;2022-08-21T09:30:30;23.10;60.70
14901;DHT22;7542;49.078;9.194;2022-08-21T09:32:58;23.20;59.30
14901;DHT22;7542;49.078;9.194;2022-08-21T09:35:26;23.40;59.20
14901;DHT22;7542;49.078;9.194;2022-08-21T09:38:00;23.40;58.80
14901;DHT22;7542;49.078;9.194;2022-08-21T09:40:39;23.40;58.40
14901;DHT22;7542;49.078;9.194;2022-08-21T09:45:39;23.60;58.40
14901;DHT22;7542;49.078;9.194;2022-08-21T09:48:23;23.70;59.00
14901;DHT22;7542;49.078;9.194;2022-08-21T09:50:53;23.60;61.00
14901;DHT22;7542;49.078;9.194;2022-08-21T09:53:41;23.80;60.00
14901;DHT22;7542;49.078;9.194;2022-08-21T09:56:26;23.90;59.40
14901;DHT22;7542;49.078;9.194;2022-08-21T09:59:42;24.00;59.40
14901;DHT22;7542;49.078;9.194;2022-08-21T10:02:28;24.10;57.60
14901;DHT22;7542;49.078;9.194;2022-08-21T10:07:52;24.30;55.40
14901;DHT22;7542;49.078;9.194;2022-08-21T10:10:29;24.40;54.60
14901;DHT22;7542;49.078;9.194;2022-08-21T10:16:59;24.50;54.80
14901;DHT22;7542;49.078;9.194;2022-08-21T10:20:12;24.70;53.90
14901;DHT22;7542;49.078;9.194;2022-08-21T10:22:49;24.70;53.60
14901;DHT22;7542;49.078;9.194;2022-08-21T10:26:05;24.80;53.50
14901;DHT22;7542;49.078;9.194;2022-08-21T10:31:53;25.00;52.90
14901;DHT22;7542;49.078;9.194;2022-08-21T10:34:34;25.10;52.90
14901;DHT22;7542;49.078;9.194;2022-08-21T10:40:30;25.20;52.00
14901;DHT22;7542;49.078;9.194;2022-08-21T10:48:47;25.60;51.30
14901;DHT22;7542;49.078;9.194;2022-08-21T10:51:50;25.70;50.00
14901;DHT22;7542;49.078;9.194;2022-08-21T10:54:54;25.80;51.20
14901;DHT22;7542;49.078;9.194;2022-08-21T11:00:09;25.80;51.70
14901;DHT22;7542;49.078;9.194;2022-08-21T11:03:01;25.90;50.40
14901;DHT22;7542;49.078;9.194;2022-08-21T11:05:33;26.00;51.20
14901;DHT22;7542;49.078;9.194;2022-08-21T11:08:18;26.00;50.10
14901;DHT22;7542;49.078;9.194;2022-08-21T11:10:55;26.10;50.90
14901;DHT22;7542;49.078;9.194;2022-08-21T11:13:55;26.20;49.20
14901;DHT22;7542;49.078;9.194;2022-08-21T11:16:29;26.40;48.90
14901;DHT22;7542;49.078;9.194;2022-08-21T11:19:08;26.50;49.70
14901;DHT22;7542;49.078;9.194;2022-08-21T11:27:46;26.60;47.40
14901;DHT22;7542;49.078;9.194;2022-08-21T11:30:19;26.40;48.00
14901;DHT22;7542;49.078;9.194;2022-08-21T11:35:56;26.30;49.50
14901;DHT22;7542;49.078;9.194;2022-08-21T11:38:35;26.40;47.50
14901;DHT22;7542;49.078;9.194;2022-08-21T11:41:19;26.50;49.10
14901;DHT22;7542;49.078;9.194;2022-08-21T11:44:23;26.60;49.20
14901;DHT22;7542;49.078;9.194;2022-08-21T11:50:28;26.70;48.10
14901;DHT22;7542;49.078;9.194;2022-08-21T11:56:14;26.90;48.50
14901;DHT22;7542;49.078;9.194;2022-08-21T11:58:49;27.00;47.50
14901;DHT22;7542;49.078;9.194;2022-08-21T12:01:27;27.00;47.80
14901;DHT22;7542;49.078;9.194;2022-08-21T12:04:06;26.80;47.90
14901;DHT22;7542;49.078;9.194;2022-08-21T12:06:38;26.80;47.90
14901;DHT22;7542;49.078;9.194;2022-08-21T12:09:31;26.90;48.00
14901;DHT22;7542;49.078;9.194;2022-08-21T12:12:21;27.00;46.20
14901;DHT22;7542;49.078;9.194;2022-08-21T12:15:03;27.10;47.20
14901;DHT22;7542;49.078;9.194;2022-08-21T12:18:21;27.00;47.50
14901;DHT22;7542;49.078;9.194;2022-08-21T12:24:40;26.90;46.60
14901;DHT22;7542;49.078;9.194;2022-08-21T12:27:29;27.10;46.50
14901;DHT22;7542;49.078;9.194;2022-08-21T12:33:03;27.30;44.40
14901;DHT22;7542;49.078;9.194;2022-08-21T12:35:39;27.50;45.50
14901;DHT22;7542;49.078;9.194;2022-08-21T12:38:33;27.50;45.90
14901;DHT22;7542;49.078;9.194;2022-08-21T12:41:18;27.50;45.00
14901;DHT22;7542;49.078;9.194;2022-08-21T12:43:56;27.60;45.00
14901;DHT22;7542;49.078;9.194;2022-08-21T12:46:43;27.70;42.50
14901;DHT22;7542;49.078;9.194;2022-08-21T12:49:33;27.80;43.80
14901;DHT22;7542;49.078;9.194;2022-08-21T12:52:58;27.90;43.30
14901;DHT22;7542;49.078;9.194;2022-08-21T12:55:46;27.90;44.10
14901;DHT22;7542;49.078;9.194;2022-08-21T12:58:21;28.00;44.10
14901;DHT22;7542;49.078;9.194;2022-08-21T13:01:03;28.10;43.30
14901;DHT22;7542;49.078;9.194;2022-08-21T13:03:37;28.10;44.50
14901;DHT22;7542;49.078;9.194;2022-08-21T13:06:05;28.10;44.50
14901;DHT22;7542;49.078;9.194;2022-08-21T13:08:36;28.10;44.70
14901;DHT22;7542;49.078;9.194;2022-08-21T13:11:08;28.10;43.00
14901;DHT22;7542;49.078;9.194;2022-08-21T13:13:41;28.30;44.20
14901;DHT22;7542;49.078;9.194;2022-08-21T13:16:22;28.30;43.90
14901;DHT22;7542;49.078;9.194;2022-08-21T13:19:05;28.30;42.40
14901;DHT22;7542;49.078;9.194;2022-08-21T13:21:38;28.30;42.80
14901;DHT22;7542;49.078;9.194;2022-08-21T13:24:28;28.40;40.60
14901;DHT22;7542;49.078;9.194;2022-08-21T13:27:20;28.50;41.90
14901;DHT22;7542;49.078;9.194;2022-08-21T13:30:08;28.50;41.50
14901;DHT22;7542;49.078;9.194;2022-08-21T13:32:52;28.40;41.90
14901;DHT22;7542;49.078;9.194;2022-08-21T13:35:36;28.40;41.90
14901;DHT22;7542;49.078;9.194;2022-08-21T13:38:15;28.50;41.90
14901;DHT22;7542;49.078;9.194;2022-08-21T13:41:03;28.50;41.90
14901;DHT22;7542;49.078;9.194;2022-08-21T13:43:57;28.50;40.50
14901;DHT22;7542;49.078;9.194;2022-08-21T13:46:36;28.60;42.00
14901;DHT22;7542;49.078;9.194;2022-08-21T13:49:04;28.60;42.60
14901;DHT22;7542;49.078;9.194;2022-08-21T13:51:33;28.70;41.90
14901;DHT22;7542;49.078;9.194;2022-08-21T13:54:15;28.70;42.60
14901;DHT22;7542;49.078;9.194;2022-08-21T13:56:46;28.70;41.90
14901;DHT22;7542;49.078;9.194;2022-08-21T13:59:28;28.70;41.90
14901;DHT22;7542;49.078;9.194;2022-08-21T14:02:17;28.70;41.40
14901;DHT22;7542;49.078;9.194;2022-08-21T14:09:54;28.70;40.50
14901;DHT22;7542;49.078;9.194;2022-08-21T14:12:29;28.50;41.90
14901;DHT22;7542;49.078;9.194;2022-08-21T14:15:05;28.30;42.30
14901;DHT22;7542;49.078;9.194;2022-08-21T14:17:35;28.10;40.20
14901;DHT22;7542;49.078;9.194;2022-08-21T14:20:10;28.20;41.30
14901;DHT22;7542;49.078;9.194;2022-08-21T14:22:53;28.10;41.80
14901;DHT22;7542;49.078;9.194;2022-08-21T14:31:20;28.30;42.90
14901;DHT22;7542;49.078;9.194;2022-08-21T14:33:48;28.40;41.70
14901;DHT22;7542;49.078;9.194;2022-08-21T14:36:15;28.40;41.80
14901;DHT22;7542;49.078;9.194;2022-08-21T14:38:42;28.40;41.90
14901;DHT22;7542;49.078;9.194;2022-08-21T14:41:19;28.30;41.90
14901;DHT22;7542;49.078;9.194;2022-08-21T14:43:51;28.90;40.80
14901;DHT22;7542;49.078;9.194;2022-08-21T14:46:33;28.50;40.30
14901;DHT22;7542;49.078;9.194;2022-08-21T14:49:10;28.60;41.10
14901;DHT22;7542;49.078;9.194;2022-08-21T14:51:37;28.70;41.00
14901;DHT22;7542;49.078;9.194;2022-08-21T14:54:19;28.70;40.80
14901;DHT22;7542;49.078;9.194;2022-08-21T14:56:57;28.70;40.20
14901;DHT22;7542;49.078;9.194;2022-08-21T14:59:27;28.70;39.30
14901;DHT22;7542;49.078;9.194;2022-08-21T15:01:54;28.70;40.30
14901;DHT22;7542;49.078;9.194;2022-08-21T15:04:22;28.70;40.10
14901;DHT22;7542;49.078;9.194;2022-08-21T15:06:49;28.70;40.90
14901;DHT22;7542;49.078;9.194;2022-08-21T15:09:16;28.60;40.20
14901;DHT22;7542;49.078;9.194;2022-08-21T15:11:43;28.50;41.10
14901;DHT22;7542;49.078;9.194;2022-08-21T15:14:19;28.50;40.60
14901;DHT22;7542;49.078;9.194;2022-08-21T15:16:50;28.60;39.40
14901;DHT22;7542;49.078;9.194;2022-08-21T15:19:18;28.50;40.70
14901;DHT22;7542;49.078;9.194;2022-08-21T15:21:45;28.40;41.10
14901;DHT22;7542;49.078;9.194;2022-08-21T15:24:12;28.30;43.90
14901;DHT22;7542;49.078;9.194;2022-08-21T15:26:39;28.20;42.70
14901;DHT22;7542;49.078;9.194;2022-08-21T15:29:07;28.10;39.70
14901;DHT22;7542;49.078;9.194;2022-08-21T15:31:36;28.10;40.90
14901;DHT22;7542;49.078;9.194;2022-08-21T15:34:03;28.10;41.10
14901;DHT22;7542;49.078;9.194;2022-08-21T15:36:30;28.00;39.90
14901;DHT22;7542;49.078;9.194;2022-08-21T15:38:57;28.00;41.00
14901;DHT22;7542;49.078;9.194;2022-08-21T15:41:23;28.30;40.30
14901;DHT22;7542;49.078;9.194;2022-08-21T15:43:51;28.00;40.20
14901;DHT22;7542;49.078;9.194;2022-08-21T15:46:20;28.00;39.70
14901;DHT22;7542;49.078;9.194;2022-08-21T15:48:48;28.00;41.00
14901;DHT22;7542;49.078;9.194;2022-08-21T15:51:16;27.90;40.90
14901;DHT22;7542;49.078;9.194;2022-08-21T15:53:44;27.80;38.70
14901;DHT22;7542;49.078;9.194;2022-08-21T15:59:00;27.80;39.30
14901;DHT22;7542;49.078;9.194;2022-08-21T16:01:30;27.80;40.30
14901;DHT22;7542;49.078;9.194;2022-08-21T16:04:15;27.90;39.40
14901;DHT22;7542;49.078;9.194;2022-08-21T16:06:49;27.70;39.70
14901;DHT22;7542;49.078;9.194;2022-08-21T16:09:21;27.60;40.70
14901;DHT22;7542;49.078;9.194;2022-08-21T16:11:48;27.50;40.50
14901;DHT22;7542;49.078;9.194;2022-08-21T16:14:16;27.50;37.10
14901;DHT22;7542;49.078;9.194;2022-08-21T16:16:44;27.40;41.40
14901;DHT22;7542;49.078;9.194;2022-08-21T16:19:12;27.30;39.40
14901;DHT22;7542;49.078;9.194;2022-08-21T16:21:40;27.20;39.20
14901;DHT22;7542;49.078;9.194;2022-08-21T16:24:07;27.10;39.60
14901;DHT22;7542;49.078;9.194;2022-08-21T16:26:34;27.20;39.80
14901;DHT22;7542;49.078;9.194;2022-08-21T16:29:02;27.10;39.70
14901;DHT22;7542;49.078;9.194;2022-08-21T16:31:31;27.00;41.40
14901;DHT22;7542;49.078;9.194;2022-08-21T16:33:58;26.90;38.40
14901;DHT22;7542;49.078;9.194;2022-08-21T16:36:26;26.90;39.70
14901;DHT22;7542;49.078;9.194;2022-08-21T16:38:54;26.90;37.10
14901;DHT22;7542;49.078;9.194;2022-08-21T16:41:23;26.90;39.80
14901;DHT22;7542;49.078;9.194;2022-08-21T16:43:52;26.90;39.20
14901;DHT22;7542;49.078;9.194;2022-08-21T16:46:20;26.80;38.90
14901;DHT22;7542;49.078;9.194;2022-08-21T16:48:48;26.80;38.30
14901;DHT22;7542;49.078;9.194;2022-08-21T16:51:16;26.80;48.40
14901;DHT22;7542;49.078;9.194;2022-08-21T16:53:43;26.70;48.70
14901;DHT22;7542;49.078;9.194;2022-08-21T16:56:12;26.60;50.70
14901;DHT22;7542;49.078;9.194;2022-08-21T16:58:43;26.50;51.00
14901;DHT22;7542;49.078;9.194;2022-08-21T17:01:17;26.40;50.00
14901;DHT22;7542;49.078;9.194;2022-08-21T17:03:48;26.30;49.00
14901;DHT22;7542;49.078;9.194;2022-08-21T17:06:22;26.20;49.50
14901;DHT22;7542;49.078;9.194;2022-08-21T17:08:54;26.10;49.30
14901;DHT22;7542;49.078;9.194;2022-08-21T17:14:27;26.00;48.70
14901;DHT22;7542;49.078;9.194;2022-08-21T17:16:54;26.00;47.70
14901;DHT22;7542;49.078;9.194;2022-08-21T17:19:22;25.90;47.80
14901;DHT22;7542;49.078;9.194;2022-08-21T17:21:49;25.90;46.90
14901;DHT22;7542;49.078;9.194;2022-08-21T17:24:16;25.90;47.80
14901;DHT22;7542;49.078;9.194;2022-08-21T17:26:43;25.80;47.60
14901;DHT22;7542;49.078;9.194;2022-08-21T17:29:11;25.80;46.90
14901;DHT22;7542;49.078;9.194;2022-08-21T17:31:42;25.80;46.20
14901;DHT22;7542;49.078;9.194;2022-08-21T17:34:10;26.00;46.40
14901;DHT22;7542;49.078;9.194;2022-08-21T17:36:38;25.70;44.70
14901;DHT22;7542;49.078;9.194;2022-08-21T17:39:05;25.70;45.10
14901;DHT22;7542;49.078;9.194;2022-08-21T17:41:33;25.70;43.00
14901;DHT22;7542;49.078;9.194;2022-08-21T17:44:03;25.70;46.20